createdAt,value
2022-12-24T00:08:35.053Z,10.4
2022-12-24T00:18:40.037Z,10.3
2022-12-24T00:28:36.808Z,10.6
2022-12-24T00:38:37.009Z,10.5
2022-12-24T00:48:37.483Z,10.6
2022-12-24T00:58:37.830Z,10.7
2022-12-24T01:08:38.650Z,10.8
2022-12-24T01:18:38.983Z,10.7
2022-12-24T01:28:39.032Z,10.7
2022-12-24T01:38:39.611Z,10.6
2022-12-24T01:48:40.279Z,10.6
2022-12-24T01:58:40.494Z,10.5
2022-12-24T02:18:41.464Z,10.5
2022-12-24T02:28:41.965Z,10.4
2022-12-24T02:38:42.837Z,10.3
2022-12-24T02:48:43.197Z,10.2
2022-12-24T02:58:44.151Z,10.1
2022-12-24T03:08:44.683Z,10.1
2022-12-24T03:18:44.900Z,10.1
2022-12-24T03:28:45.111Z,10.1
2022-12-24T03:38:45.219Z,10.1
2022-12-24T03:48:46.104Z,10.1
2022-12-24T03:58:46.800Z,10.1
2022-12-24T04:08:47.223Z,10.1
2022-12-24T04:18:47.663Z,10.1
2022-12-24T04:28:47.828Z,10
2022-12-24T04:38:48.141Z,10
2022-12-24T04:48:48.460Z,10
2022-12-24T04:58:49.357Z,10
2022-12-24T05:08:50.179Z,10
2022-12-24T05:18:50.936Z,9.9
2022-12-24T05:28:51.997Z,9.9
2022-12-24T05:38:52.704Z,10
2022-12-24T05:48:53.572Z,10
2022-12-24T05:58:54.131Z,10.1
2022-12-24T06:08:54.489Z,10.1
2022-12-24T06:18:54.830Z,10.1
2022-12-24T06:38:55.542Z,10.3
2022-12-24T06:48:56.370Z,10.3
2022-12-24T06:59:01.650Z,10.2
2022-12-24T07:08:57.818Z,10.3
2022-12-24T07:18:58.812Z,10.3
2022-12-24T07:28:59.575Z,10.2
2022-12-24T07:38:59.962Z,10.2
2022-12-24T07:49:00.326Z,10.2
2022-12-24T07:59:00.717Z,10.3
2022-12-24T08:09:01.648Z,10.4
2022-12-24T08:19:02.446Z,10.3
2022-12-24T08:29:02.601Z,10.4
2022-12-24T08:39:03.307Z,10.4
2022-12-24T08:49:03.640Z,10.4
2022-12-24T09:09:04.849Z,10.4
2022-12-24T09:19:05.396Z,10.5
2022-12-24T09:29:05.939Z,10.5
2022-12-24T09:39:06.491Z,10.5
2022-12-24T09:49:07.530Z,10.7
2022-12-24T09:59:08.176Z,10.8
2022-12-24T10:09:08.945Z,10.7
2022-12-24T10:19:09.361Z,10.7
2022-12-24T10:29:10.395Z,10.8
2022-12-24T10:39:11.285Z,11
2022-12-24T10:49:12.334Z,11.1
2022-12-24T10:59:12.716Z,11.3
2022-12-24T11:09:13.361Z,11.3
2022-12-24T11:19:13.866Z,11.1
2022-12-24T11:29:14.611Z,11
2022-12-24T11:39:15.247Z,11.3
2022-12-24T11:49:15.401Z,11.4
2022-12-24T11:59:15.727Z,11.2
2022-12-24T12:09:16.425Z,11.2
2022-12-24T12:19:16.722Z,11.2
2022-12-24T12:29:17.541Z,11.2
2022-12-24T12:31:55.955Z,11.2
2022-12-24T12:39:26.147Z,11.1
2022-12-24T12:49:27.211Z,11
2022-12-24T13:09:27.535Z,11
2022-12-24T13:19:30.427Z,11.2
2022-12-24T13:29:28.364Z,11.3
2022-12-24T13:39:28.965Z,11.3
2022-12-24T13:49:29.818Z,11.3
2022-12-24T13:59:34.611Z,11.2
2022-12-24T14:09:30.191Z,11.1
2022-12-24T14:19:35.602Z,11
2022-12-24T14:29:31.431Z,10.9
2022-12-24T14:49:32.016Z,10.8
2022-12-24T14:59:32.192Z,10.7
2022-12-24T15:09:33.003Z,10.6
2022-12-24T15:19:33.641Z,10.4
2022-12-24T15:29:34.659Z,10.3
2022-12-24T15:39:34.866Z,10.1
2022-12-24T15:49:35.074Z,10.1
2022-12-24T15:59:35.590Z,10.1
2022-12-24T16:09:36.655Z,10.1
2022-12-24T16:19:40.212Z,10
2022-12-24T16:29:38.079Z,9.9
2022-12-24T16:39:39.093Z,9.7
2022-12-24T16:49:39.333Z,9.6
2022-12-24T16:59:39.994Z,9.5
2022-12-24T17:09:40.381Z,9.1
2022-12-24T17:19:41.185Z,8.9
2022-12-24T17:29:41.722Z,8.8
2022-12-24T17:49:43.597Z,8.4
2022-12-24T18:09:44.649Z,8
2022-12-24T18:19:45.330Z,8.1
2022-12-24T18:29:45.912Z,8.2
2022-12-24T18:39:46.093Z,8.2
2022-12-24T18:49:46.503Z,8
2022-12-24T18:59:47.295Z,7.7
2022-12-24T19:09:47.781Z,7.6
2022-12-24T19:19:48.476Z,7.7
2022-12-24T19:29:49.388Z,7.7
2022-12-24T19:39:49.688Z,7.7
2022-12-24T19:49:50.170Z,7.8
2022-12-24T19:59:50.442Z,7.9
2022-12-24T20:09:51.202Z,8
2022-12-24T20:19:51.941Z,8.1
2022-12-24T20:29:52.259Z,8.2
2022-12-24T20:39:52.830Z,8.3
2022-12-24T20:49:53.868Z,8.4
2022-12-24T20:59:53.960Z,8.6
2022-12-24T21:09:54.352Z,8.6
2022-12-24T21:19:54.493Z,8.5
2022-12-24T21:29:55.343Z,8.5
2022-12-24T21:39:56.034Z,8.5
2022-12-24T21:59:57.243Z,8.6
2022-12-24T22:59:59.582Z,8.3
2022-12-24T23:09:59.826Z,8.2
2022-12-24T23:20:00.334Z,8.2
2022-12-24T23:30:01.189Z,8.2
2022-12-24T23:40:02.211Z,8.1
2022-12-24T23:50:02.817Z,8
